createdAt,value
2018-07-01T00:00:32.255Z,0.00
2018-07-01T00:01:32.233Z,0.00
2018-07-01T00:02:32.220Z,0.00
2018-07-01T00:03:32.215Z,0.00
2018-07-01T00:04:32.198Z,0.00
2018-07-01T00:05:32.206Z,0.00
2018-07-01T00:06:32.176Z,0.00
2018-07-01T00:07:32.165Z,0.00
2018-07-01T00:08:32.157Z,0.00
2018-07-01T00:09:32.144Z,0.00
2018-07-01T00:10:32.147Z,0.00
2018-07-01T00:11:32.122Z,0.00
2018-07-01T00:12:32.114Z,0.00
2018-07-01T00:13:32.102Z,0.00
2018-07-01T00:14:32.096Z,0.00
2018-07-01T00:15:32.092Z,0.00
2018-07-01T00:16:32.070Z,0.00
2018-07-01T00:17:32.061Z,0.00
2018-07-01T00:18:32.047Z,0.00
2018-07-01T00:19:32.035Z,0.00
2018-07-01T00:20:32.039Z,0.00
2018-07-01T00:21:32.015Z,0.00
2018-07-01T00:22:32.003Z,0.00
2018-07-01T00:23:31.992Z,0.00
2018-07-01T00:24:31.982Z,0.00
2018-07-01T00:25:31.981Z,0.00
2018-07-01T00:26:31.962Z,0.00
2018-07-01T00:27:31.950Z,0.00
2018-07-01T00:28:31.940Z,0.00
2018-07-01T00:29:31.929Z,0.00
2018-07-01T00:30:31.932Z,0.00
2018-07-01T00:31:31.905Z,0.00
2018-07-01T00:32:31.898Z,0.00
2018-07-01T00:33:31.883Z,0.00
2018-07-01T00:34:31.874Z,0.00
2018-07-01T00:35:31.876Z,0.00
2018-07-01T00:36:31.853Z,0.00
2018-07-01T00:37:31.843Z,0.00
2018-07-01T00:38:31.834Z,0.00
2018-07-01T00:39:31.822Z,0.00
2018-07-01T00:40:31.842Z,0.00
2018-07-01T00:41:31.796Z,0.00
2018-07-01T00:42:31.787Z,0.00
2018-07-01T00:43:31.780Z,0.00
2018-07-01T00:44:31.769Z,0.00
2018-07-01T00:45:31.755Z,0.00
2018-07-01T00:46:31.755Z,0.00
2018-07-01T00:47:31.734Z,0.00
2018-07-01T00:48:31.723Z,0.00
2018-07-01T00:49:31.713Z,0.00
2018-07-01T00:50:31.700Z,0.00
2018-07-01T00:51:31.702Z,0.00
2018-07-01T00:52:31.681Z,0.00
2018-07-01T00:53:31.668Z,0.00
2018-07-01T00:54:31.656Z,0.00
2018-07-01T00:55:31.647Z,0.00
2018-07-01T00:56:31.651Z,0.00
2018-07-01T00:57:31.627Z,0.00
2018-07-01T00:58:31.617Z,0.00
2018-07-01T00:59:31.610Z,0.00
2018-07-01T01:00:31.597Z,0.00
2018-07-01T01:01:31.582Z,0.00
2018-07-01T01:02:31.583Z,0.00
2018-07-01T01:03:31.565Z,0.00
2018-07-01T01:04:31.549Z,0.00
2018-07-01T01:05:31.540Z,0.00
2018-07-01T01:06:31.530Z,0.00
2018-07-01T01:07:31.533Z,0.00
2018-07-01T01:08:31.506Z,0.00
2018-07-01T01:09:31.499Z,0.00
2018-07-01T01:10:31.490Z,0.00
2018-07-01T01:11:31.475Z,0.00
2018-07-01T01:12:31.491Z,0.00
2018-07-01T01:13:31.454Z,0.00
2018-07-01T01:14:31.442Z,0.00
2018-07-01T01:15:31.434Z,0.00
2018-07-01T01:16:31.430Z,0.00
2018-07-01T01:17:31.426Z,0.00
2018-07-01T01:18:31.401Z,0.00
2018-07-01T01:19:31.419Z,0.00
2018-07-01T01:20:31.378Z,0.00
2018-07-01T01:21:31.367Z,0.00
2018-07-01T01:22:31.366Z,0.00
2018-07-01T01:23:31.344Z,0.00
2018-07-01T01:24:31.335Z,0.00
2018-07-01T01:25:31.324Z,0.00
2018-07-01T01:26:31.322Z,0.00
2018-07-01T01:27:31.314Z,0.00
2018-07-01T01:28:31.289Z,0.00
2018-07-01T01:29:31.279Z,0.00
2018-07-01T01:30:31.271Z,0.00
2018-07-01T01:31:31.259Z,0.00
2018-07-01T01:32:31.261Z,0.00
2018-07-01T01:33:31.240Z,0.00
2018-07-01T01:34:31.250Z,0.00
2018-07-01T01:35:31.215Z,0.00
2018-07-01T01:36:31.204Z,0.00
2018-07-01T01:37:31.219Z,0.00
2018-07-01T01:38:31.184Z,0.00
2018-07-01T01:39:31.170Z,0.00
2018-07-01T01:40:31.163Z,0.00
2018-07-01T01:41:31.151Z,0.00
2018-07-01T01:42:31.171Z,0.00
2018-07-01T01:43:31.142Z,0.00
2018-07-01T01:44:31.119Z,0.00
2018-07-01T01:45:31.105Z,0.00
2018-07-01T01:46:31.095Z,0.00
2018-07-01T01:47:31.088Z,0.00
2018-07-01T01:48:31.093Z,0.00
2018-07-01T01:49:31.094Z,0.00
2018-07-01T01:50:31.051Z,0.00
2018-07-01T01:51:31.041Z,0.00
2018-07-01T01:52:31.028Z,0.00
2018-07-01T01:53:31.032Z,0.00
2018-07-01T01:54:31.012Z,0.00
2018-07-01T01:55:30.997Z,0.00
2018-07-01T01:56:30.983Z,0.00
2018-07-01T01:57:30.974Z,0.00
2018-07-01T01:58:30.980Z,0.00
2018-07-01T01:59:30.955Z,0.00
2018-07-01T02:00:30.953Z,0.00
2018-07-01T02:01:30.929Z,0.00
2018-07-01T02:02:30.918Z,0.00
2018-07-01T02:03:30.907Z,0.00
2018-07-01T02:04:30.915Z,0.00
2018-07-01T02:05:30.887Z,0.00
2018-07-01T02:06:30.874Z,0.00
2018-07-01T02:07:30.861Z,0.00
2018-07-01T02:08:30.854Z,0.00
2018-07-01T02:09:30.854Z,0.00
2018-07-01T02:10:30.829Z,0.00
2018-07-01T02:11:30.816Z,0.00
2018-07-01T02:12:30.807Z,0.00
2018-07-01T02:13:30.795Z,0.00
2018-07-01T02:14:30.799Z,0.00
2018-07-01T02:15:30.772Z,0.00
2018-07-01T02:16:30.762Z,0.00
2018-07-01T02:17:30.767Z,0.00
2018-07-01T02:18:30.738Z,0.00
2018-07-01T02:19:30.742Z,0.00
2018-07-01T02:20:30.718Z,0.00
2018-07-01T02:21:30.707Z,0.00
2018-07-01T02:22:30.694Z,0.00
2018-07-01T02:23:30.684Z,0.00
2018-07-01T02:24:30.685Z,0.00
2018-07-01T02:25:30.661Z,0.00
2018-07-01T02:26:30.649Z,0.00
2018-07-01T02:27:30.638Z,0.00
2018-07-01T02:28:30.629Z,0.00
2018-07-01T02:29:30.629Z,0.00
2018-07-01T02:30:30.606Z,0.00
2018-07-01T02:31:30.594Z,0.00
2018-07-01T02:32:30.583Z,0.00
2018-07-01T02:33:30.573Z,0.00
2018-07-01T02:34:30.577Z,0.00
2018-07-01T02:35:30.747Z,0.00
2018-07-01T02:36:30.538Z,0.00
2018-07-01T02:37:30.526Z,0.00
2018-07-01T02:38:30.515Z,0.00
2018-07-01T02:39:30.507Z,0.00
2018-07-01T02:40:30.532Z,0.00
2018-07-01T02:41:30.481Z,0.00
2018-07-01T02:42:30.472Z,0.00
2018-07-01T02:43:30.466Z,0.00
2018-07-01T02:44:30.451Z,0.00
2018-07-01T02:45:30.452Z,0.00
2018-07-01T02:46:30.427Z,0.00
2018-07-01T02:47:30.416Z,0.00
2018-07-01T02:48:30.409Z,0.00
2018-07-01T02:49:30.394Z,0.00
2018-07-01T02:50:30.401Z,0.00
2018-07-01T02:51:30.377Z,0.00
2018-07-01T02:52:30.361Z,0.00
2018-07-01T02:53:30.350Z,0.00
2018-07-01T02:54:30.339Z,0.00
2018-07-01T02:55:30.328Z,0.00
2018-07-01T02:56:30.335Z,0.00
2018-07-01T02:57:30.311Z,0.00
2018-07-01T02:58:30.297Z,0.00
2018-07-01T02:59:30.287Z,0.00
2018-07-01T03:00:30.274Z,0.00
2018-07-01T03:01:30.276Z,0.00
2018-07-01T03:02:30.255Z,0.00
2018-07-01T03:03:30.246Z,0.00
2018-07-01T03:04:30.231Z,0.00
2018-07-01T03:05:30.220Z,0.00
2018-07-01T03:06:30.224Z,0.00
2018-07-01T03:07:30.198Z,0.00
2018-07-01T03:08:30.191Z,0.00
2018-07-01T03:09:30.178Z,0.00
2018-07-01T03:10:30.166Z,0.00
2018-07-01T03:11:30.191Z,0.00
2018-07-01T03:12:30.150Z,0.00
2018-07-01T03:13:30.136Z,0.00
2018-07-01T03:14:30.126Z,5.62
2018-07-01T03:15:30.114Z,5.62
2018-07-01T03:16:30.103Z,5.62
2018-07-01T03:17:30.106Z,5.62
2018-07-01T03:18:30.083Z,5.62
2018-07-01T03:19:30.081Z,5.62
2018-07-01T03:20:30.064Z,5.62
2018-07-01T03:21:30.049Z,5.62
2018-07-01T03:22:30.053Z,5.62
2018-07-01T03:23:30.037Z,11.25
2018-07-01T03:24:30.021Z,11.25
2018-07-01T03:25:30.007Z,11.25
2018-07-01T03:26:29.996Z,11.25
2018-07-01T03:27:30.028Z,11.25
2018-07-01T03:28:29.976Z,11.25
2018-07-01T03:29:29.964Z,16.88
2018-07-01T03:30:29.956Z,16.88
2018-07-01T03:31:29.959Z,16.88
2018-07-01T03:32:29.933Z,16.88
2018-07-01T03:33:29.934Z,22.50
2018-07-01T03:34:29.913Z,22.50
2018-07-01T03:35:29.902Z,22.50
2018-07-01T03:36:29.892Z,22.50
2018-07-01T03:37:29.879Z,28.12
2018-07-01T03:38:29.881Z,28.12
2018-07-01T03:39:29.858Z,28.12
2018-07-01T03:40:29.849Z,28.12
2018-07-01T03:41:29.836Z,33.75
2018-07-01T03:42:29.828Z,33.75
2018-07-01T03:43:29.834Z,39.38
2018-07-01T03:44:29.809Z,39.38
2018-07-01T03:45:29.796Z,45.00
2018-07-01T03:46:29.785Z,56.25
2018-07-01T03:47:29.773Z,61.88
2018-07-01T03:48:29.766Z,73.12
2018-07-01T03:49:29.768Z,78.75
2018-07-01T03:50:29.743Z,78.75
2018-07-01T03:51:29.731Z,84.38
2018-07-01T03:52:29.719Z,90.00
2018-07-01T03:53:29.708Z,95.62
2018-07-01T03:54:29.715Z,101.25
2018-07-01T03:55:29.689Z,101.25
2018-07-01T03:56:29.675Z,106.88
2018-07-01T03:57:29.663Z,106.88
2018-07-01T03:58:29.652Z,112.50
2018-07-01T03:59:29.674Z,118.12
2018-07-01T04:00:29.697Z,123.75
2018-07-01T04:01:29.623Z,129.38
2018-07-01T04:02:29.608Z,129.38
2018-07-01T04:03:29.597Z,135.00
2018-07-01T04:04:29.586Z,140.62
2018-07-01T04:05:29.598Z,146.25
2018-07-01T04:06:29.565Z,151.88
2018-07-01T04:07:29.553Z,163.12
2018-07-01T04:08:29.544Z,168.75
2018-07-01T04:09:29.532Z,185.62
2018-07-01T04:10:29.535Z,208.12
2018-07-01T04:11:29.512Z,230.62
2018-07-01T04:12:29.502Z,258.75
2018-07-01T04:13:29.490Z,281.25
2018-07-01T04:14:29.481Z,298.12
2018-07-01T04:15:29.524Z,309.38
2018-07-01T04:16:29.461Z,320.62
2018-07-01T04:17:29.451Z,320.62
2018-07-01T04:18:29.437Z,326.25
2018-07-01T04:19:29.425Z,348.75
2018-07-01T04:20:29.429Z,388.12
2018-07-01T04:21:29.401Z,421.88
2018-07-01T04:22:29.391Z,461.25
2018-07-01T04:23:29.382Z,523.12
2018-07-01T04:24:29.369Z,590.62
2018-07-01T04:25:29.372Z,663.75
2018-07-01T04:26:29.349Z,708.75
2018-07-01T04:27:29.337Z,714.38
2018-07-01T04:28:29.326Z,708.75
2018-07-01T04:29:29.316Z,703.12
2018-07-01T04:30:29.320Z,686.25
2018-07-01T04:31:29.295Z,686.25
2018-07-01T04:32:29.282Z,680.62
2018-07-01T04:33:29.275Z,669.38
2018-07-01T04:34:29.263Z,646.88
2018-07-01T04:35:29.269Z,641.25
2018-07-01T04:36:29.245Z,630.00
2018-07-01T04:37:29.226Z,618.75
2018-07-01T04:38:29.216Z,601.88
2018-07-01T04:39:29.206Z,590.62
2018-07-01T04:40:29.193Z,573.75
2018-07-01T04:41:29.199Z,562.50
2018-07-01T04:42:29.173Z,545.62
2018-07-01T04:43:29.162Z,545.62
2018-07-01T04:44:29.150Z,551.25
2018-07-01T04:45:29.139Z,556.88
2018-07-01T04:46:29.146Z,540.00
2018-07-01T04:47:29.127Z,528.75
2018-07-01T04:48:29.109Z,523.12
2018-07-01T04:49:29.097Z,517.50
2018-07-01T04:50:29.090Z,523.12
2018-07-01T04:51:29.079Z,523.12
2018-07-01T04:52:29.088Z,528.75
2018-07-01T04:53:29.060Z,545.62
2018-07-01T04:54:29.043Z,523.12
2018-07-01T04:55:29.034Z,511.88
2018-07-01T04:56:29.021Z,517.50
2018-07-01T04:57:29.035Z,534.38
2018-07-01T04:58:28.999Z,568.12
2018-07-01T04:59:28.989Z,573.75
2018-07-01T05:00:28.978Z,545.62
2018-07-01T05:01:28.971Z,545.62
2018-07-01T05:02:29.097Z,568.12
2018-07-01T05:03:28.952Z,579.38
2018-07-01T05:04:28.935Z,590.62
2018-07-01T05:05:28.926Z,596.25
2018-07-01T05:06:28.915Z,590.62
2018-07-01T05:07:28.919Z,607.50
2018-07-01T05:08:28.891Z,641.25
2018-07-01T05:09:28.885Z,675.00
2018-07-01T05:10:28.870Z,686.25
2018-07-01T05:11:28.859Z,686.25
2018-07-01T05:12:28.866Z,725.62
2018-07-01T05:13:28.837Z,787.50
2018-07-01T05:14:28.828Z,826.88
2018-07-01T05:15:28.817Z,860.62
2018-07-01T05:16:28.806Z,860.62
2018-07-01T05:17:28.795Z,781.88
2018-07-01T05:18:28.799Z,714.38
2018-07-01T05:19:28.774Z,675.00
2018-07-01T05:20:28.762Z,635.62
2018-07-01T05:21:28.752Z,613.12
2018-07-01T05:22:28.738Z,601.88
2018-07-01T05:23:28.744Z,601.88
2018-07-01T05:24:28.720Z,624.38
2018-07-01T05:25:28.708Z,748.12
2018-07-01T05:26:28.697Z,933.75
2018-07-01T05:27:28.689Z,1001.25
2018-07-01T05:28:28.687Z,1035.00
2018-07-01T05:29:28.674Z,1080.00
2018-07-01T05:30:28.655Z,1108.12
2018-07-01T05:31:28.643Z,1119.38
2018-07-01T05:32:28.633Z,1164.38
2018-07-01T05:33:28.640Z,1271.25
2018-07-01T05:34:28.612Z,1473.75
2018-07-01T05:35:28.603Z,1715.62
2018-07-01T05:36:28.591Z,1636.88
2018-07-01T05:37:28.584Z,1479.38
2018-07-01T05:38:28.589Z,1462.50
2018-07-01T05:39:28.559Z,1445.62
2018-07-01T05:40:28.549Z,1417.50
2018-07-01T05:41:28.545Z,1411.88
2018-07-01T05:42:28.531Z,1440.00
2018-07-01T05:43:28.522Z,1535.62
2018-07-01T05:44:28.520Z,1946.25
2018-07-01T05:45:28.499Z,1951.88
2018-07-01T05:46:28.485Z,1541.25
2018-07-01T05:47:28.477Z,1490.62
2018-07-01T05:48:28.465Z,1485.00
2018-07-01T05:49:28.530Z,1501.88
2018-07-01T05:50:28.449Z,1501.88
2018-07-01T05:51:28.436Z,1524.38
2018-07-01T05:52:28.423Z,1591.88
2018-07-01T05:53:28.414Z,1541.25
2018-07-01T05:54:28.418Z,1383.75
2018-07-01T05:55:28.392Z,1479.38
2018-07-01T05:56:28.390Z,1597.50
2018-07-01T05:57:28.371Z,1569.38
2018-07-01T05:58:28.362Z,1575.00
2018-07-01T05:59:28.362Z,1620.00
2018-07-01T06:00:28.341Z,1636.88
2018-07-01T06:01:28.333Z,1631.25
2018-07-01T06:02:28.319Z,1670.62
2018-07-01T06:03:28.311Z,1636.88
2018-07-01T06:04:28.310Z,1620.00
2018-07-01T06:05:28.287Z,1710.00
2018-07-01T06:06:28.278Z,1721.25
2018-07-01T06:07:28.268Z,1665.00
2018-07-01T06:08:28.257Z,1620.00
2018-07-01T06:09:28.281Z,1676.25
2018-07-01T06:10:28.234Z,1777.50
2018-07-01T06:11:28.226Z,1766.25
2018-07-01T06:12:28.214Z,1676.25
2018-07-01T06:13:28.207Z,1653.75
2018-07-01T06:14:28.193Z,1704.38
2018-07-01T06:15:28.194Z,1760.62
2018-07-01T06:16:28.185Z,1698.75
2018-07-01T06:17:28.163Z,1563.75
2018-07-01T06:18:28.152Z,1569.38
2018-07-01T06:19:28.142Z,1665.00
2018-07-01T06:20:28.142Z,1670.62
2018-07-01T06:21:28.123Z,1603.12
2018-07-01T06:22:28.118Z,1608.75
2018-07-01T06:23:28.102Z,1693.12
2018-07-01T06:24:28.096Z,1777.50
2018-07-01T06:25:28.106Z,1906.88
2018-07-01T06:26:28.070Z,1946.25
2018-07-01T06:27:28.061Z,1963.12
2018-07-01T06:28:28.050Z,1951.88
2018-07-01T06:29:28.039Z,1935.00
2018-07-01T06:30:28.034Z,1957.50
2018-07-01T06:31:28.034Z,1940.62
2018-07-01T06:32:28.009Z,2002.50
2018-07-01T06:33:27.998Z,1923.75
2018-07-01T06:34:27.989Z,1901.25
2018-07-01T06:35:27.976Z,2025.00
2018-07-01T06:36:27.982Z,2025.00
2018-07-01T06:37:27.957Z,2036.25
2018-07-01T06:38:27.951Z,2154.38
2018-07-01T06:39:27.936Z,2182.50
2018-07-01T06:40:27.924Z,2148.75
2018-07-01T06:41:27.952Z,2092.50
2018-07-01T06:42:27.908Z,2103.75
2018-07-01T06:43:27.898Z,2188.12
2018-07-01T06:44:27.884Z,2205.00
2018-07-01T06:45:27.875Z,2216.25
2018-07-01T06:46:27.863Z,2188.12
2018-07-01T06:47:27.869Z,2176.88
2018-07-01T06:48:27.846Z,2221.88
2018-07-01T06:49:27.841Z,2199.38
2018-07-01T06:50:27.826Z,2205.00
2018-07-01T06:51:27.813Z,2210.62
2018-07-01T06:52:27.835Z,2238.75
2018-07-01T06:53:27.793Z,2362.50
2018-07-01T06:54:27.783Z,2165.62
2018-07-01T06:55:27.781Z,2019.38
2018-07-01T06:56:27.833Z,2148.75
2018-07-01T06:57:27.757Z,2306.25
2018-07-01T06:58:27.760Z,2295.00
2018-07-01T06:59:27.738Z,2266.88
2018-07-01T07:00:27.725Z,2295.00
2018-07-01T07:01:27.714Z,2503.12
2018-07-01T07:02:27.714Z,2610.00
2018-07-01T07:03:27.713Z,2587.50
2018-07-01T07:04:27.685Z,2475.00
2018-07-01T07:05:27.675Z,2441.25
2018-07-01T07:06:27.667Z,2570.62
2018-07-01T07:07:27.658Z,2497.50
2018-07-01T07:08:27.654Z,2401.88
2018-07-01T07:09:27.649Z,2385.00
2018-07-01T07:10:27.627Z,2413.12
2018-07-01T07:11:27.649Z,2643.75
2018-07-01T07:12:27.604Z,2671.88
2018-07-01T07:13:27.596Z,2480.62
2018-07-01T07:14:27.601Z,2407.50
2018-07-01T07:15:27.575Z,2514.38
2018-07-01T07:16:27.568Z,2649.38
2018-07-01T07:17:27.554Z,2750.62
2018-07-01T07:18:27.552Z,2705.62
2018-07-01T07:19:27.546Z,2705.62
2018-07-01T07:20:27.537Z,2587.50
2018-07-01T07:21:27.513Z,2531.25
2018-07-01T07:22:27.504Z,2688.75
2018-07-01T07:23:27.495Z,2795.62
2018-07-01T07:24:27.539Z,2812.50
2018-07-01T07:25:27.492Z,2784.38
2018-07-01T07:26:27.467Z,2733.75
2018-07-01T07:27:27.453Z,2745.00
2018-07-01T07:28:27.443Z,2767.50
2018-07-01T07:29:27.435Z,2835.00
2018-07-01T07:30:27.478Z,2919.38
2018-07-01T07:31:27.427Z,2880.00
2018-07-01T07:32:27.403Z,2874.38
2018-07-01T07:33:27.393Z,2750.62
2018-07-01T07:34:27.386Z,2643.75
2018-07-01T07:35:27.374Z,2756.25
2018-07-01T07:36:27.377Z,2801.25
2018-07-01T07:37:27.356Z,2919.38
2018-07-01T07:38:27.360Z,2902.50
2018-07-01T07:39:27.335Z,2851.88
2018-07-01T07:40:27.324Z,2947.50
2018-07-01T07:41:27.332Z,3020.62
2018-07-01T07:42:27.312Z,2913.75
2018-07-01T07:43:27.300Z,2891.25
2018-07-01T07:44:27.285Z,2958.75
2018-07-01T07:45:27.277Z,3026.25
2018-07-01T07:46:27.270Z,3150.00
2018-07-01T07:47:27.272Z,3144.38
2018-07-01T07:48:27.252Z,2936.25
2018-07-01T07:49:27.237Z,2863.12
2018-07-01T07:50:27.226Z,3037.50
2018-07-01T07:51:27.218Z,3240.00
2018-07-01T07:52:27.235Z,3127.50
2018-07-01T07:53:27.199Z,2908.12
2018-07-01T07:54:27.196Z,3020.62
2018-07-01T07:55:27.180Z,3245.62
2018-07-01T07:56:27.168Z,3408.75
2018-07-01T07:57:27.161Z,3251.25
2018-07-01T07:58:27.164Z,3290.62
2018-07-01T07:59:27.141Z,3318.75
2018-07-01T08:00:27.132Z,3138.75
2018-07-01T08:01:27.121Z,3116.25
2018-07-01T08:02:27.112Z,3138.75
2018-07-01T08:03:27.117Z,3211.88
2018-07-01T08:04:27.092Z,3262.50
2018-07-01T08:05:27.083Z,3296.25
2018-07-01T08:06:27.074Z,3341.25
2018-07-01T08:07:27.138Z,3189.38
2018-07-01T08:08:27.073Z,3324.38
2018-07-01T08:09:27.047Z,3307.50
2018-07-01T08:10:27.038Z,3431.25
2018-07-01T08:11:27.027Z,3391.88
2018-07-01T08:12:27.022Z,3425.62
2018-07-01T08:13:27.008Z,3504.38
2018-07-01T08:14:27.013Z,3279.38
2018-07-01T08:15:26.992Z,3735.00
2018-07-01T08:16:27.000Z,3673.12
2018-07-01T08:17:26.975Z,2840.62
2018-07-01T08:18:26.963Z,4089.38
2018-07-01T08:19:26.975Z,3976.88
2018-07-01T08:20:26.943Z,2722.50
2018-07-01T08:21:26.933Z,3988.12
2018-07-01T08:22:26.925Z,4365.00
2018-07-01T08:23:26.915Z,3223.12
2018-07-01T08:24:26.908Z,2750.62
2018-07-01T08:25:26.922Z,4218.75
2018-07-01T08:26:26.888Z,4246.88
2018-07-01T08:27:26.878Z,2970.00
2018-07-01T08:28:26.869Z,3650.62
2018-07-01T08:29:26.859Z,3993.75
2018-07-01T08:30:26.862Z,3256.88
2018-07-01T08:31:26.841Z,3701.25
2018-07-01T08:32:26.832Z,4421.25
2018-07-01T08:33:26.823Z,3903.75
2018-07-01T08:34:26.863Z,3740.62
2018-07-01T08:35:26.822Z,4320.00
2018-07-01T08:36:26.798Z,3864.38
2018-07-01T08:37:26.785Z,3588.75
2018-07-01T08:38:26.774Z,4173.75
2018-07-01T08:39:26.769Z,3892.50
2018-07-01T08:40:26.759Z,3380.62
2018-07-01T08:41:26.760Z,3532.50
2018-07-01T08:42:26.739Z,3948.75
2018-07-01T08:43:26.731Z,3746.25
2018-07-01T08:44:26.722Z,3690.00
2018-07-01T08:45:26.718Z,3892.50
2018-07-01T08:46:26.724Z,3926.25
2018-07-01T08:47:26.712Z,4117.50
2018-07-01T08:48:26.710Z,4381.88
2018-07-01T08:49:26.678Z,4033.12
2018-07-01T08:50:26.669Z,4117.50
2018-07-01T08:51:26.665Z,4190.62
2018-07-01T08:52:26.693Z,3858.75
2018-07-01T08:53:26.642Z,4038.75
2018-07-01T08:54:26.701Z,4770.00
2018-07-01T08:55:26.627Z,4590.00
2018-07-01T08:56:26.623Z,4151.25
2018-07-01T08:57:26.618Z,4291.88
2018-07-01T08:58:26.597Z,4421.25
2018-07-01T08:59:26.589Z,4629.38
2018-07-01T09:00:26.580Z,4899.38
2018-07-01T09:01:26.570Z,5006.25
2018-07-01T09:02:26.581Z,4820.62
2018-07-01T09:03:26.565Z,4331.25
2018-07-01T09:04:26.542Z,4235.62
2018-07-01T09:05:26.534Z,4905.00
2018-07-01T09:06:26.527Z,5473.12
2018-07-01T09:07:26.515Z,4972.50
2018-07-01T09:08:26.533Z,5726.25
2018-07-01T09:09:26.505Z,6080.62
2018-07-01T09:10:26.489Z,4983.75
2018-07-01T09:11:26.481Z,4263.75
2018-07-01T09:12:26.470Z,4275.00
2018-07-01T09:13:26.488Z,4770.00
2018-07-01T09:14:26.456Z,4753.12
2018-07-01T09:15:26.466Z,4336.88
2018-07-01T09:16:26.440Z,4280.62
2018-07-01T09:17:26.431Z,4050.00
2018-07-01T09:18:26.420Z,3971.25
2018-07-01T09:19:26.446Z,4021.88
2018-07-01T09:20:26.405Z,3931.88
2018-07-01T09:21:26.392Z,3954.38
2018-07-01T09:22:26.385Z,4348.12
2018-07-01T09:23:26.413Z,4488.75
2018-07-01T09:24:26.388Z,4246.88
2018-07-01T09:25:26.384Z,4201.88
2018-07-01T09:26:26.353Z,4151.25
2018-07-01T09:27:26.359Z,4190.62
2018-07-01T09:28:26.331Z,4224.38
2018-07-01T09:29:26.779Z,4275.00
2018-07-01T09:30:26.315Z,4404.38
2018-07-01T09:31:26.311Z,4477.50
2018-07-01T09:32:26.296Z,4291.88
2018-07-01T09:33:26.289Z,4078.12
2018-07-01T09:34:26.378Z,4140.00
2018-07-01T09:35:26.289Z,4095.00
2018-07-01T09:36:26.269Z,4066.88
2018-07-01T09:37:26.282Z,4100.62
2018-07-01T09:38:26.252Z,4106.25
2018-07-01T09:39:26.239Z,4072.50
2018-07-01T09:40:26.249Z,4038.75
2018-07-01T09:41:26.226Z,4005.00
2018-07-01T09:42:26.216Z,4275.00
2018-07-01T09:43:26.255Z,4539.38
2018-07-01T09:44:26.237Z,4117.50
2018-07-01T09:45:26.187Z,3915.00
2018-07-01T09:46:26.193Z,4168.12
2018-07-01T09:47:26.254Z,4111.88
2018-07-01T09:48:26.163Z,3937.50
2018-07-01T09:49:26.179Z,3847.50
2018-07-01T09:50:26.237Z,3813.75
2018-07-01T09:51:26.177Z,3808.12
2018-07-01T09:52:26.132Z,3937.50
2018-07-01T09:53:26.139Z,4106.25
2018-07-01T09:54:26.122Z,4207.50
2018-07-01T09:55:26.109Z,4055.62
2018-07-01T09:56:26.099Z,3988.12
2018-07-01T09:57:26.102Z,3999.38
2018-07-01T09:58:26.082Z,4123.12
2018-07-01T09:59:26.075Z,4207.50
2018-07-01T10:00:26.061Z,4168.12
2018-07-01T10:01:26.061Z,4308.75
2018-07-01T10:02:26.062Z,4106.25
2018-07-01T10:03:26.040Z,3830.62
2018-07-01T10:04:26.031Z,4033.12
2018-07-01T10:05:26.022Z,4269.38
2018-07-01T10:06:26.021Z,4370.62
2018-07-01T10:07:26.048Z,4432.50
2018-07-01T10:08:26.063Z,4297.50
2018-07-01T10:09:25.986Z,4224.38
2018-07-01T10:10:25.985Z,4117.50
2018-07-01T10:11:25.971Z,4089.38
2018-07-01T10:12:25.967Z,4393.12
2018-07-01T10:13:25.966Z,4533.75
2018-07-01T10:14:25.948Z,4573.12
2018-07-01T10:15:25.943Z,4775.62
2018-07-01T10:16:25.929Z,4612.50
2018-07-01T10:17:25.922Z,4443.75
2018-07-01T10:18:25.945Z,4218.75
2018-07-01T10:19:25.905Z,3965.62
2018-07-01T10:20:25.899Z,4089.38
2018-07-01T10:21:25.883Z,4443.75
2018-07-01T10:22:25.881Z,4753.12
2018-07-01T10:23:25.866Z,4516.88
2018-07-01T10:24:25.874Z,4123.12
2018-07-01T10:25:25.852Z,4421.25
2018-07-01T10:26:25.876Z,4831.88
2018-07-01T10:27:25.831Z,4680.00
2018-07-01T10:28:25.823Z,4173.75
2018-07-01T10:29:25.830Z,3948.75
2018-07-01T10:30:25.804Z,4269.38
2018-07-01T10:31:25.796Z,4674.38
2018-07-01T10:32:25.817Z,4753.12
2018-07-01T10:33:25.779Z,4438.12
2018-07-01T10:34:25.792Z,3819.38
2018-07-01T10:35:25.769Z,3965.62
2018-07-01T10:36:25.756Z,4320.00
2018-07-01T10:37:25.746Z,4494.38
2018-07-01T10:38:25.742Z,4471.88
2018-07-01T10:39:25.751Z,4275.00
2018-07-01T10:40:25.720Z,4151.25
2018-07-01T10:41:25.715Z,3976.88
2018-07-01T10:42:25.716Z,4095.00
2018-07-01T10:43:25.695Z,4393.12
2018-07-01T10:44:25.687Z,4657.50
2018-07-01T10:45:25.690Z,4477.50
2018-07-01T10:46:25.673Z,3808.12
2018-07-01T10:47:25.664Z,3453.75
2018-07-01T10:48:25.659Z,3886.88
2018-07-01T10:49:25.653Z,4089.38
2018-07-01T10:50:25.656Z,3763.12
2018-07-01T10:51:25.714Z,3785.62
2018-07-01T10:52:25.622Z,4078.12
2018-07-01T10:53:25.642Z,4140.00
2018-07-01T10:54:25.603Z,4241.25
2018-07-01T10:55:25.608Z,4336.88
2018-07-01T10:56:25.614Z,4280.62
2018-07-01T10:57:25.586Z,3943.12
2018-07-01T10:58:25.571Z,4100.62
2018-07-01T10:59:25.654Z,4213.12
2018-07-01T11:00:25.557Z,4308.75
2018-07-01T11:01:25.560Z,4314.38
2018-07-01T11:02:25.540Z,4196.25
2018-07-01T11:03:25.530Z,4055.62
2018-07-01T11:04:25.545Z,4078.12
2018-07-01T11:05:25.515Z,4156.88
2018-07-01T11:06:25.658Z,4162.50
2018-07-01T11:07:25.505Z,4201.88
2018-07-01T11:08:25.494Z,4252.50
2018-07-01T11:09:25.485Z,4241.25
2018-07-01T11:10:25.557Z,4218.75
2018-07-01T11:11:25.465Z,4100.62
2018-07-01T11:12:25.472Z,4005.00
2018-07-01T11:13:25.451Z,3920.62
2018-07-01T11:14:25.461Z,3847.50
2018-07-01T11:15:25.435Z,4106.25
2018-07-01T11:16:25.426Z,4252.50
2018-07-01T11:17:25.435Z,4224.38
2018-07-01T11:18:25.417Z,4303.12
2018-07-01T11:19:25.398Z,4185.00
2018-07-01T11:20:25.506Z,4128.75
2018-07-01T11:21:25.388Z,4275.00
2018-07-01T11:22:25.380Z,4218.75
2018-07-01T11:23:25.390Z,4230.00
2018-07-01T11:24:25.363Z,4162.50
2018-07-01T11:25:25.349Z,4050.00
2018-07-01T11:26:25.348Z,4151.25
2018-07-01T11:27:25.434Z,4140.00
2018-07-01T11:28:25.365Z,4083.75
2018-07-01T11:29:25.317Z,4168.12
2018-07-01T11:30:25.307Z,4123.12
2018-07-01T11:31:25.297Z,3965.62
2018-07-01T11:32:25.291Z,3993.75
2018-07-01T11:33:25.303Z,4106.25
2018-07-01T11:34:25.282Z,3971.25
2018-07-01T11:35:25.265Z,3796.88
2018-07-01T11:36:25.256Z,3892.50
2018-07-01T11:37:25.252Z,4038.75
2018-07-01T11:38:25.240Z,4044.38
2018-07-01T11:39:25.254Z,3982.50
2018-07-01T11:40:25.227Z,3937.50
2018-07-01T11:41:25.216Z,3588.75
2018-07-01T11:42:25.265Z,2435.62
2018-07-01T11:43:25.198Z,1012.50
2018-07-01T11:44:25.209Z,270.00
2018-07-01T11:45:25.181Z,247.50
2018-07-01T11:46:25.172Z,236.25
2018-07-01T11:47:25.168Z,230.62
2018-07-01T11:48:25.161Z,230.62
2018-07-01T11:49:25.169Z,225.00
2018-07-01T11:50:25.155Z,219.38
2018-07-01T11:51:25.130Z,213.75
2018-07-01T11:52:25.149Z,213.75
2018-07-01T11:53:25.113Z,208.12
2018-07-01T11:54:25.110Z,208.12
2018-07-01T11:55:25.102Z,202.50
2018-07-01T11:56:25.082Z,202.50
2018-07-01T11:57:25.077Z,202.50
2018-07-01T11:58:25.080Z,202.50
2018-07-01T11:59:25.056Z,202.50
2018-07-01T12:00:25.075Z,196.88
2018-07-01T12:01:25.049Z,196.88
2018-07-01T12:02:25.023Z,196.88
2018-07-01T12:03:25.014Z,196.88
2018-07-01T12:04:25.002Z,196.88
2018-07-01T12:05:25.063Z,196.88
2018-07-01T12:06:24.995Z,196.88
2018-07-01T12:07:24.979Z,191.25
2018-07-01T12:08:24.969Z,191.25
2018-07-01T12:09:24.952Z,191.25
2018-07-01T12:10:24.948Z,191.25
2018-07-01T12:11:24.952Z,191.25
2018-07-01T12:12:24.920Z,191.25
2018-07-01T12:13:24.910Z,191.25
2018-07-01T12:14:24.901Z,191.25
2018-07-01T12:15:24.889Z,191.25
2018-07-01T12:16:24.882Z,191.25
2018-07-01T12:17:24.886Z,185.62
2018-07-01T12:18:24.856Z,185.62
2018-07-01T12:19:24.848Z,185.62
2018-07-01T12:20:24.838Z,185.62
2018-07-01T12:21:24.827Z,185.62
2018-07-01T12:22:24.830Z,185.62
2018-07-01T12:23:24.878Z,185.62
2018-07-01T12:24:24.797Z,185.62
2018-07-01T12:25:24.788Z,185.62
2018-07-01T12:26:24.782Z,185.62
2018-07-01T12:27:24.782Z,185.62
2018-07-01T12:28:24.760Z,185.62
2018-07-01T12:29:24.745Z,180.00
2018-07-01T12:30:24.738Z,180.00